Zhoushuizi Airport
ZYTL : now visible

Airfield :











YOU CAN JOIN US ON...

 
LOGIN :

Register | Disclaimer

   EN    FR    IT 

 









Legend :    VFR   Marginal VFR   IFR   Intensive IFR   Very Intensive IFR
Visi :
Ceiling :
>= 8 km
>= 3000ft
5 to 8 km
1000 to 3000 ft
1500m to 5 km
500 to 1000 ft
800 to 1500m
200 to 500 ft
< 800m
< 200 ft
Symbols :   Thunderstorms  Fog  Heavy snow  Heavy precipitations  Wind > 20 kt






- Airport Elevation : 107 ft
- IATA code : DLC


ZYTL - Zhoushuizi

CURRENT METAR :
  • 290130Z 16002MPS 120V190 CAVOK 16/M04 Q1028 NOSIG

EXPIRED METARs :
  • 290100Z 00000MPS CAVOK 15/M02 Q1028 NOSIG
  • 290030Z 00000MPS CAVOK 13/M03 Q1028 NOSIG
  • 290000Z VRB01MPS CAVOK 10/M02 Q1028 NOSIG
  • 282330Z 26001MPS CAVOK 07/M01 Q1028 NOSIG
  • 282300Z 00000MPS CAVOK 04/M02 Q1027 NOSIG

TAF TAF ZYTL
Valid from the 29 at 00:00 until the 30 at 00:00 UTC


282105Z 2900/2924 28004MPS 5000 BR FEW033 TX15/2906Z TN04/2921Z
ZYSH FIR / Asia



MET'MAP, your aeronautical weather chart ! - Copyright ORBIFLY December 2007 - Disclaimer

ORBIFLY MET'MAP TEAM :

Programming & Development : Alexandra Zaïnal
Concept & original design : Baudouin d'Aumeries
Assistance for programming : Marc-Olivier Méhu
Technical & hardware support : Manuel Goepfert

Contact : metmap@orbifly.com




SOURCES & CREDITS :

   NOAA       Earth
Advisory